Stolt Spray — ZCSQ9 — position and weather

sailwx.info

Track history (hours):
 
Tides and Currents Weather Stations Pressure Air Temp Water Temp Dewpoint Dewpoint Depression Visibility Wind Speed Wind Dir Waves Ship Positions

Stolt Spray

Last reported at 2015-Feb-23 05:18 UTC. Time now 2015-Mar-04 08:38 UTC.
Position N 29°45' E 122°36'.
Warning: this ship's position is 9 days out of date.

Length 163 m; draft 8.9 m.

Type: Tanker. MMSI: 319591000.

Date/timePositionNaut miles runAvg speedWind from/ knotsBaromVisibWave heightAir tempDewpointWater temp
2015-Feb-23 05:18N 29°45' E 122°36'912.1
2015-Feb-23 04:33N 29°45' E 122°26'9 9.0
2015-Feb-23 03:33N 29°47' E 122°16'1010.4
2015-Feb-23 02:33N 29°55' E 122°08'1212.3
2015-Feb-23 01:33N 29°57' E 121°54'3 0.1
2015-Feb-22 00:31N 29°58' E 121°51'6 0.3
2015-Feb-21 02:33N 29°57' E 121°57'0 0.0
2015-Feb-21 01:27N 29°57' E 121°57'0 0.0
2015-Feb-21 00:34N 29°57' E 121°57'0 0.0
2015-Feb-20 23:21N 29°57' E 121°57'0 0.0
2015-Feb-20 22:33N 29°57' E 121°57'0 0.0
2015-Feb-20 21:33N 29°57' E 121°57'0 0.0
2015-Feb-20 19:21N 29°57' E 121°57'0 0.0
2015-Feb-20 18:27N 29°57' E 121°57'0 0.0
2015-Feb-20 17:09N 29°57' E 121°57'0 0.0
2015-Feb-20 16:27N 29°57' E 121°57'0 0.0
2015-Feb-20 15:15N 29°57' E 121°57'0 0.0
2015-Feb-20 14:33N 29°57' E 121°57'0 0.0
2015-Feb-20 13:22N 29°57' E 121°57'0 0.0
2015-Feb-20 12:21N 29°57' E 121°57'0 0.0
2015-Feb-20 11:33N 29°57' E 121°57'0 0.0
2015-Feb-20 10:04N 29°57' E 121°57'0 0.0
2015-Feb-20 09:27N 29°57' E 121°57'0 0.0
2015-Feb-20 08:15N 29°57' E 121°57'0 0.0
2015-Feb-20 07:27N 29°57' E 121°57'0 0.0
2015-Feb-20 06:09N 29°57' E 121°57'0 0.0
2015-Feb-20 05:27N 29°57' E 121°57'0 0.0
2015-Feb-20 03:21N 29°57' E 121°57'0 0.0
2015-Feb-20 01:21N 29°57' E 121°57'0 0.0
2015-Feb-20 00:09N 29°57' E 121°57'0 0.0
2015-Feb-19 23:33N 29°57' E 121°57'0 0.0
2015-Feb-19 22:34N 29°57' E 121°57'0 0.0
2015-Feb-19 21:33N 29°57' E 121°57'0 0.0
2015-Feb-19 20:33N 29°57' E 121°57'0 0.0
2015-Feb-19 19:09N 29°57' E 121°57'0 0.0
2015-Feb-19 18:34N 29°57' E 121°57'0 0.0
2015-Feb-19 15:34N 29°57' E 121°57'0 0.0
2015-Feb-18 01:33N 29°57' E 121°57'2 2.0
2015-Feb-18 00:33N 29°58' E 121°59'1312.8
2015-Feb-17 23:34N 29°52' E 122°12'1010.0
2015-Feb-17 22:33N 29°46' E 122°21'3 2.3
2015-Feb-17 21:18N 29°46' E 122°25'0 0.0
2015-Feb-17 19:06N 29°46' E 122°25'0 0.0
2015-Feb-17 17:06N 29°46' E 122°25'0 0.0
2015-Feb-17 16:18N 29°46' E 122°25'0 0.0
2015-Feb-17 15:30N 29°46' E 122°25'5 4.9
2015-Feb-17 14:33N 29°45' E 122°30'1613.3
2015-Feb-17 13:23N 29°41' E 122°47'44112.5
2015-Feb-16 02:14N 22°48' E 119°56'1014.0
2015-Feb-16 01:33N 22°42' E 120°04'1312.5
2015-Feb-16 00:33N 22°37' E 120°17'2 2.1
2015-Feb-15 23:30N 22°35' E 120°18'0 0.0
2015-Feb-15 22:24N 22°35' E 120°18'0 0.0
2015-Feb-15 21:17N 22°35' E 120°18'0 0.0
2015-Feb-15 18:11N 22°35' E 120°18'0 0.0
2015-Feb-15 17:23N 22°35' E 120°18'0 0.0
2015-Feb-15 16:30N 22°35' E 120°18'0 0.0
2015-Feb-15 15:18N 22°35' E 120°18'0 0.0
2015-Feb-15 14:24N 22°35' E 120°18'0 0.0
2015-Feb-15 13:30N 22°35' E 120°18'0 0.0
2015-Feb-15 12:24N 22°35' E 120°18'0 0.0
2015-Feb-15 10:30N 22°35' E 120°18'0 0.0
2015-Feb-15 07:23N 22°35' E 120°18'0 0.0
2015-Feb-15 00:11N 22°35' E 120°18'0 0.1
2015-Feb-14 23:33N 22°35' E 120°18'7 3.4
2015-Feb-14 21:31N 22°40' E 120°13'0 0.0
2015-Feb-14 20:31N 22°40' E 120°13'0 0.0
2015-Feb-14 19:31N 22°40' E 120°13'0 0.0
2015-Feb-14 18:32N 22°40' E 120°13'0 0.1
2015-Feb-14 17:32N 22°40' E 120°13'0 0.2
2015-Feb-14 16:32N 22°40' E 120°13'0 0.0
2015-Feb-14 15:32N 22°40' E 120°13'0 0.0
2015-Feb-14 14:32N 22°40' E 120°13'1 1.2
2015-Feb-14 13:33N 22°40' E 120°12'1212.3
2015-Feb-14 12:33N 22°46' E 119°60'1211.6
2015-Feb-14 11:33N 22°57' E 119°54'3712.1
2015-Feb-14 08:30N 23°33' E 119°57'1211.8
2015-Feb-14 07:31N 23°43' E 120°04'  
Track history (hours):
 
Tides and Currents Weather Stations Pressure Air Temp Water Temp Dewpoint Dewpoint Depression Visibility Wind Speed Wind Dir Waves Ship Positions

Stolt Spray

Last reported at 2015-Feb-23 05:18 UTC. Time now 2015-Mar-04 08:38 UTC.
Position N 29°45' E 122°36'.
Warning: this ship's position is 9 days out of date.

Length 163 m; draft 8.9 m.

Type: Tanker. MMSI: 319591000.

Date/timePositionNaut miles runAvg speedWind from/ knotsBaromVisibWave heightAir tempDewpointWater temp
2015-Feb-23 05:18N 29°45' E 122°36'912.1
2015-Feb-23 04:33N 29°45' E 122°26'9 9.0
2015-Feb-23 03:33N 29°47' E 122°16'1010.4
2015-Feb-23 02:33N 29°55' E 122°08'1212.3
2015-Feb-23 01:33N 29°57' E 121°54'3 0.1
2015-Feb-22 00:31N 29°58' E 121°51'6 0.3
2015-Feb-21 02:33N 29°57' E 121°57'0 0.0
2015-Feb-21 01:27N 29°57' E 121°57'0 0.0
2015-Feb-21 00:34N 29°57' E 121°57'0 0.0
2015-Feb-20 23:21N 29°57' E 121°57'0 0.0
2015-Feb-20 22:33N 29°57' E 121°57'0 0.0
2015-Feb-20 21:33N 29°57' E 121°57'0 0.0
2015-Feb-20 19:21N 29°57' E 121°57'0 0.0
2015-Feb-20 18:27N 29°57' E 121°57'0 0.0
2015-Feb-20 17:09N 29°57' E 121°57'0 0.0
2015-Feb-20 16:27N 29°57' E 121°57'0 0.0
2015-Feb-20 15:15N 29°57' E 121°57'0 0.0
2015-Feb-20 14:33N 29°57' E 121°57'0 0.0
2015-Feb-20 13:22N 29°57' E 121°57'0 0.0
2015-Feb-20 12:21N 29°57' E 121°57'0 0.0
2015-Feb-20 11:33N 29°57' E 121°57'0 0.0
2015-Feb-20 10:04N 29°57' E 121°57'0 0.0
2015-Feb-20 09:27N 29°57' E 121°57'0 0.0
2015-Feb-20 08:15N 29°57' E 121°57'0 0.0
2015-Feb-20 07:27N 29°57' E 121°57'0 0.0
2015-Feb-20 06:09N 29°57' E 121°57'0 0.0
2015-Feb-20 05:27N 29°57' E 121°57'0 0.0
2015-Feb-20 03:21N 29°57' E 121°57'0 0.0
2015-Feb-20 01:21N 29°57' E 121°57'0 0.0
2015-Feb-20 00:09N 29°57' E 121°57'0 0.0
2015-Feb-19 23:33N 29°57' E 121°57'0 0.0
2015-Feb-19 22:34N 29°57' E 121°57'0 0.0
2015-Feb-19 21:33N 29°57' E 121°57'0 0.0
2015-Feb-19 20:33N 29°57' E 121°57'0 0.0
2015-Feb-19 19:09N 29°57' E 121°57'0 0.0
2015-Feb-19 18:34N 29°57' E 121°57'0 0.0
2015-Feb-19 15:34N 29°57' E 121°57'0 0.0
2015-Feb-18 01:33N 29°57' E 121°57'2 2.0
2015-Feb-18 00:33N 29°58' E 121°59'1312.8
2015-Feb-17 23:34N 29°52' E 122°12'1010.0
2015-Feb-17 22:33N 29°46' E 122°21'3 2.3
2015-Feb-17 21:18N 29°46' E 122°25'0 0.0
2015-Feb-17 19:06N 29°46' E 122°25'0 0.0
2015-Feb-17 17:06N 29°46' E 122°25'0 0.0
2015-Feb-17 16:18N 29°46' E 122°25'0 0.0
2015-Feb-17 15:30N 29°46' E 122°25'5 4.9
2015-Feb-17 14:33N 29°45' E 122°30'1613.3
2015-Feb-17 13:23N 29°41' E 122°47'44112.5
2015-Feb-16 02:14N 22°48' E 119°56'1014.0
2015-Feb-16 01:33N 22°42' E 120°04'1312.5
2015-Feb-16 00:33N 22°37' E 120°17'2 2.1
2015-Feb-15 23:30N 22°35' E 120°18'0 0.0
2015-Feb-15 22:24N 22°35' E 120°18'0 0.0
2015-Feb-15 21:17N 22°35' E 120°18'0 0.0
2015-Feb-15 18:11N 22°35' E 120°18'0 0.0
2015-Feb-15 17:23N 22°35' E 120°18'0 0.0
2015-Feb-15 16:30N 22°35' E 120°18'0 0.0
2015-Feb-15 15:18N 22°35' E 120°18'0 0.0
2015-Feb-15 14:24N 22°35' E 120°18'0 0.0
2015-Feb-15 13:30N 22°35' E 120°18'0 0.0
2015-Feb-15 12:24N 22°35' E 120°18'0 0.0
2015-Feb-15 10:30N 22°35' E 120°18'0 0.0
2015-Feb-15 07:23N 22°35' E 120°18'0 0.0
2015-Feb-15 00:11N 22°35' E 120°18'0 0.1
2015-Feb-14 23:33N 22°35' E 120°18'7 3.4
2015-Feb-14 21:31N 22°40' E 120°13'0 0.0
2015-Feb-14 20:31N 22°40' E 120°13'0 0.0
2015-Feb-14 19:31N 22°40' E 120°13'0 0.0
2015-Feb-14 18:32N 22°40' E 120°13'0 0.1
2015-Feb-14 17:32N 22°40' E 120°13'0 0.2
2015-Feb-14 16:32N 22°40' E 120°13'0 0.0
2015-Feb-14 15:32N 22°40' E 120°13'0 0.0
2015-Feb-14 14:32N 22°40' E 120°13'1 1.2
2015-Feb-14 13:33N 22°40' E 120°12'1212.3
2015-Feb-14 12:33N 22°46' E 119°60'1211.6
2015-Feb-14 11:33N 22°57' E 119°54'3712.1
2015-Feb-14 08:30N 23°33' E 119°57'1211.8
2015-Feb-14 07:31N 23°43' E 120°04'  

Dump ship's entire track history